createdAt,value
2018-03-20T00:00:37.803Z,66.23
2018-03-20T00:03:05.214Z,66.70
2018-03-20T00:05:32.632Z,66.30
2018-03-20T00:08:00.057Z,67.14
2018-03-20T00:10:27.464Z,66.39
2018-03-20T00:12:54.891Z,66.28
2018-03-20T00:15:22.305Z,66.84
2018-03-20T00:17:49.731Z,66.85
2018-03-20T00:20:17.142Z,66.94
2018-03-20T00:22:44.563Z,66.63
2018-03-20T00:25:11.979Z,66.82
2018-03-20T00:27:39.395Z,66.81
2018-03-20T00:30:06.811Z,66.72
2018-03-20T00:32:34.226Z,66.72
2018-03-20T00:35:01.630Z,66.54
2018-03-20T00:37:29.055Z,67.05
2018-03-20T00:39:56.461Z,66.97
2018-03-20T00:42:23.887Z,67.12
2018-03-20T00:44:51.311Z,67.69
2018-03-20T00:47:19.568Z,68.35
2018-03-20T00:49:46.974Z,68.19
2018-03-20T00:52:14.405Z,68.39
2018-03-20T00:54:41.805Z,68.14
2018-03-20T00:57:09.236Z,68.48
2018-03-20T00:59:36.662Z,69.19
2018-03-20T01:02:04.074Z,69.32
2018-03-20T01:04:31.486Z,69.79
2018-03-20T01:06:58.914Z,70.11
2018-03-20T01:09:26.333Z,70.42
2018-03-20T01:11:53.751Z,69.55
2018-03-20T01:14:21.162Z,69.25
2018-03-20T01:16:48.589Z,69.07
2018-03-20T01:19:15.997Z,68.97
2018-03-20T01:21:43.416Z,69.28
2018-03-20T01:24:10.847Z,69.22
2018-03-20T01:26:38.264Z,68.96
2018-03-20T01:29:05.680Z,69.06
2018-03-20T01:31:33.081Z,69.41
2018-03-20T01:34:00.506Z,68.86
2018-03-20T01:36:27.922Z,68.90
2018-03-20T01:38:55.343Z,69.17
2018-03-20T01:41:22.770Z,69.17
2018-03-20T01:43:51.197Z,68.62
2018-03-20T01:46:18.610Z,69.05
2018-03-20T01:48:46.039Z,69.15
2018-03-20T01:51:13.454Z,68.87
2018-03-20T01:53:40.866Z,69.47
2018-03-20T01:56:08.275Z,69.27
2018-03-20T01:58:35.693Z,69.47
2018-03-20T02:01:03.109Z,69.54
2018-03-20T02:03:30.531Z,69.33
2018-03-20T02:05:57.962Z,69.41
2018-03-20T02:08:25.379Z,69.20
2018-03-20T02:10:52.783Z,69.51
2018-03-20T02:13:20.223Z,69.50
2018-03-20T02:15:47.650Z,69.47
2018-03-20T02:18:15.070Z,69.78
2018-03-20T02:20:42.480Z,70.09
2018-03-20T02:23:09.890Z,70.01
2018-03-20T02:25:37.306Z,70.21
2018-03-20T02:28:04.736Z,70.35
2018-03-20T02:30:32.147Z,70.63
2018-03-20T02:32:59.560Z,70.71
2018-03-20T02:35:26.978Z,70.52
2018-03-20T02:37:54.398Z,70.65
2018-03-20T02:40:21.811Z,70.70
2018-03-20T02:42:49.226Z,70.28
2018-03-20T02:45:16.635Z,70.39
2018-03-20T02:47:44.050Z,70.59
2018-03-20T02:50:11.473Z,70.77
2018-03-20T02:52:38.881Z,70.52
2018-03-20T02:55:06.316Z,70.45
2018-03-20T02:57:33.739Z,70.36
2018-03-20T03:00:01.148Z,70.28
2018-03-20T03:02:28.565Z,70.38
2018-03-20T03:04:55.988Z,70.33
2018-03-20T03:07:23.869Z,70.77
2018-03-20T03:09:51.293Z,71.05
2018-03-20T03:12:18.699Z,70.53
2018-03-20T03:14:46.115Z,70.35
2018-03-20T03:17:13.523Z,70.59
2018-03-20T03:19:40.941Z,70.45
2018-03-20T03:22:08.355Z,70.86
2018-03-20T03:24:35.772Z,71.07
2018-03-20T03:27:03.170Z,73.66
2018-03-20T03:29:30.593Z,74.82
2018-03-20T03:31:58.004Z,74.12
2018-03-20T03:34:25.443Z,74.05
2018-03-20T03:36:53.532Z,74.20
2018-03-20T03:39:21.009Z,73.92
2018-03-20T03:41:48.418Z,76.13
2018-03-20T03:44:15.854Z,74.35
2018-03-20T03:46:43.264Z,72.96
2018-03-20T03:49:10.677Z,72.29
2018-03-20T03:51:38.101Z,72.19
2018-03-20T03:56:40.054Z,75.25
2018-03-20T03:59:07.474Z,74.75
2018-03-20T04:01:34.890Z,74.84
2018-03-20T04:04:02.327Z,74.97
2018-03-20T04:06:29.751Z,74.85
2018-03-20T04:08:57.161Z,74.99
2018-03-20T04:11:24.574Z,75.01
2018-03-20T04:13:52.137Z,74.84
2018-03-20T04:16:19.560Z,75.07
2018-03-20T04:18:46.979Z,75.64
2018-03-20T04:21:14.402Z,75.41
2018-03-20T04:23:41.847Z,76.07
2018-03-20T04:26:09.267Z,76.20
2018-03-20T04:28:36.689Z,77.09
2018-03-20T04:31:04.117Z,76.61
2018-03-20T04:33:31.534Z,76.69
2018-03-20T04:35:58.945Z,77.46
2018-03-20T04:38:26.733Z,77.28
2018-03-20T04:40:54.158Z,77.30
2018-03-20T04:43:21.583Z,77.67
2018-03-20T04:45:48.993Z,77.75
2018-03-20T04:48:16.410Z,77.74
2018-03-20T04:50:43.835Z,77.49
2018-03-20T04:53:11.247Z,77.50
2018-03-20T04:55:38.669Z,78.27
2018-03-20T04:58:06.077Z,78.43
2018-03-20T05:00:33.499Z,78.66
2018-03-20T05:03:00.905Z,79.06
2018-03-20T05:05:28.322Z,78.47
2018-03-20T05:07:55.739Z,78.80
2018-03-20T05:10:23.159Z,78.72
2018-03-20T05:12:50.582Z,78.67
2018-03-20T05:15:17.991Z,78.52
2018-03-20T05:17:46.906Z,78.45
2018-03-20T05:23:29.582Z,80.81
2018-03-20T05:25:57.229Z,81.39
2018-03-20T05:28:24.648Z,81.91
2018-03-20T05:30:53.561Z,80.29
2018-03-20T05:33:21.045Z,79.00
2018-03-20T05:35:48.477Z,77.97
2018-03-20T05:38:15.888Z,77.61
2018-03-20T05:40:43.305Z,77.07
2018-03-20T05:43:10.720Z,77.81
2018-03-20T05:45:38.160Z,78.25
2018-03-20T05:48:11.174Z,78.14
2018-03-20T05:53:44.078Z,77.51
2018-03-20T05:56:11.502Z,77.49
2018-03-20T05:58:38.975Z,77.31
2018-03-20T06:01:06.366Z,78.63
2018-03-20T06:03:33.778Z,79.39
2018-03-20T06:06:01.212Z,78.19
2018-03-20T06:08:28.626Z,76.56
2018-03-20T06:10:56.049Z,75.80
2018-03-20T06:13:23.470Z,75.01
2018-03-20T06:15:50.905Z,74.90
2018-03-20T06:18:18.330Z,75.13
2018-03-20T06:20:45.756Z,75.28
2018-03-20T06:23:13.184Z,74.59
2018-03-20T06:25:40.610Z,74.11
2018-03-20T06:28:08.040Z,73.97
2018-03-20T06:30:35.458Z,72.92
2018-03-20T06:33:02.884Z,73.07
2018-03-20T06:35:31.074Z,74.78
2018-03-20T06:37:58.517Z,72.76
2018-03-20T06:40:25.916Z,70.87
2018-03-20T06:42:53.334Z,74.30
2018-03-20T06:45:20.761Z,72.34
2018-03-20T06:47:48.199Z,71.55
2018-03-20T06:50:15.620Z,72.57
2018-03-20T06:52:43.039Z,72.44
2018-03-20T06:55:10.459Z,72.76
2018-03-20T06:57:37.874Z,71.56
2018-03-20T07:00:05.290Z,71.93
2018-03-20T07:02:32.727Z,72.11
2018-03-20T07:05:00.139Z,71.64
2018-03-20T07:07:27.566Z,72.46
2018-03-20T07:09:54.986Z,71.43
2018-03-20T07:12:22.410Z,73.58
2018-03-20T07:14:49.823Z,72.63
2018-03-20T07:17:17.269Z,67.20
2018-03-20T07:19:44.678Z,65.19
2018-03-20T07:22:12.106Z,64.01
2018-03-20T07:24:39.535Z,63.58
2018-03-20T07:27:06.954Z,63.89
2018-03-20T07:29:34.365Z,62.79
2018-03-20T07:32:01.820Z,63.29
2018-03-20T07:34:29.265Z,64.05
2018-03-20T07:36:56.642Z,66.48
2018-03-20T07:39:24.058Z,65.19
2018-03-20T07:41:51.494Z,63.37
2018-03-20T07:44:18.934Z,63.78
2018-03-20T07:46:46.348Z,63.71
2018-03-20T07:49:13.783Z,63.89
2018-03-20T07:51:41.195Z,63.65
2018-03-20T07:54:08.625Z,63.96
2018-03-20T07:56:36.034Z,64.66
2018-03-20T07:59:04.295Z,62.52
2018-03-20T08:01:31.714Z,62.24
2018-03-20T08:03:59.141Z,61.26
2018-03-20T08:06:26.549Z,61.76
2018-03-20T08:08:53.971Z,60.88
2018-03-20T08:11:21.416Z,61.59
2018-03-20T08:13:48.881Z,65.60
2018-03-20T08:16:16.259Z,62.36
2018-03-20T08:18:43.688Z,58.98
2018-03-20T08:21:11.101Z,60.96
2018-03-20T08:23:38.528Z,59.97
2018-03-20T08:26:05.942Z,59.83
2018-03-20T08:28:33.366Z,59.99
2018-03-20T08:31:00.798Z,59.63
2018-03-20T08:33:28.226Z,58.00
2018-03-20T08:35:55.650Z,59.14
2018-03-20T08:38:23.070Z,59.42
2018-03-20T08:40:50.486Z,58.49
2018-03-20T08:43:17.911Z,57.84
2018-03-20T08:45:45.340Z,59.23
2018-03-20T08:48:12.760Z,59.15
2018-03-20T08:50:40.180Z,58.60
2018-03-20T08:53:07.598Z,59.27
2018-03-20T08:55:35.020Z,57.05
2018-03-20T08:58:02.434Z,59.46
2018-03-20T09:00:29.859Z,55.83
2018-03-20T09:02:57.293Z,56.18
2018-03-20T09:05:24.707Z,55.88
2018-03-20T09:07:52.122Z,57.67
2018-03-20T09:10:19.537Z,55.12
2018-03-20T09:12:46.962Z,56.57
2018-03-20T09:15:14.381Z,54.27
2018-03-20T09:17:41.791Z,55.34
2018-03-20T09:20:09.207Z,55.46
2018-03-20T09:22:36.618Z,54.16
2018-03-20T09:25:04.466Z,57.32
2018-03-20T09:27:31.878Z,56.76
2018-03-20T09:29:59.297Z,54.43
2018-03-20T09:32:26.709Z,55.12
2018-03-20T09:34:54.141Z,56.61
2018-03-20T09:37:21.556Z,53.55
2018-03-20T09:39:48.975Z,54.00
2018-03-20T09:42:16.382Z,54.17
2018-03-20T09:44:43.797Z,52.18
2018-03-20T09:47:11.202Z,57.07
2018-03-20T09:49:38.985Z,53.25
2018-03-20T09:52:06.394Z,50.60
2018-03-20T09:54:33.811Z,49.17
2018-03-20T09:57:01.219Z,48.87
2018-03-20T09:59:28.637Z,54.61
2018-03-20T10:01:56.046Z,50.30
2018-03-20T10:04:23.473Z,48.75
2018-03-20T10:06:50.874Z,49.25
2018-03-20T10:09:18.290Z,45.59
2018-03-20T10:11:45.702Z,45.03
2018-03-20T10:14:13.130Z,46.55
2018-03-20T10:16:40.534Z,47.50
2018-03-20T10:19:07.950Z,46.01
2018-03-20T10:21:35.362Z,44.64
2018-03-20T10:24:02.783Z,41.00
2018-03-20T10:26:30.187Z,47.59
2018-03-20T10:28:57.614Z,44.01
2018-03-20T10:31:25.026Z,43.45
2018-03-20T10:33:52.444Z,42.49
2018-03-20T10:36:19.928Z,42.85
2018-03-20T10:38:47.324Z,44.09
2018-03-20T10:41:14.747Z,40.82
2018-03-20T10:43:42.168Z,43.80
2018-03-20T10:46:09.573Z,42.42
2018-03-20T10:48:36.987Z,42.23
2018-03-20T10:51:04.408Z,40.32
2018-03-20T10:53:31.808Z,42.40
2018-03-20T10:55:59.225Z,33.47
2018-03-20T10:58:26.627Z,37.35
2018-03-20T11:00:59.727Z,34.11
2018-03-20T11:03:27.132Z,36.42
2018-03-20T11:05:54.546Z,37.06
2018-03-20T11:08:21.958Z,35.15
2018-03-20T11:10:49.370Z,33.45
2018-03-20T11:13:16.778Z,34.44
2018-03-20T11:15:44.190Z,32.53
2018-03-20T11:18:11.599Z,34.86
2018-03-20T11:20:39.025Z,35.64
2018-03-20T11:23:06.427Z,33.66
2018-03-20T11:25:33.843Z,30.88
2018-03-20T11:28:01.251Z,32.04
2018-03-20T11:30:28.700Z,31.78
2018-03-20T11:32:56.100Z,33.30
2018-03-20T11:35:23.518Z,33.76
2018-03-20T11:37:50.939Z,34.88
2018-03-20T11:40:18.351Z,36.67
2018-03-20T11:42:45.770Z,36.29
2018-03-20T11:45:14.237Z,38.17
2018-03-20T11:47:41.639Z,36.43
2018-03-20T11:50:09.051Z,35.96
2018-03-20T11:52:36.455Z,37.58
2018-03-20T11:55:03.861Z,38.89
2018-03-20T11:57:31.265Z,39.76
2018-03-20T11:59:58.704Z,41.89
2018-03-20T12:02:26.112Z,44.24
2018-03-20T12:04:53.530Z,44.64
2018-03-20T12:07:20.939Z,44.33
2018-03-20T12:09:49.260Z,44.00
2018-03-20T12:12:16.678Z,44.00
2018-03-20T12:14:44.082Z,45.04
2018-03-20T12:17:11.497Z,47.81
2018-03-20T12:19:38.901Z,51.71
2018-03-20T12:22:06.323Z,54.51
2018-03-20T12:24:33.731Z,54.95
2018-03-20T12:27:01.150Z,53.71
2018-03-20T12:29:28.563Z,56.93
2018-03-20T12:31:56.030Z,53.90
2018-03-20T12:34:23.393Z,53.42
2018-03-20T12:36:50.802Z,53.82
2018-03-20T12:39:18.205Z,51.42
2018-03-20T12:41:46.634Z,53.55
2018-03-20T12:44:14.042Z,52.28
2018-03-20T12:46:41.534Z,56.16
2018-03-20T12:49:08.869Z,58.02
2018-03-20T12:51:36.282Z,56.45
2018-03-20T12:54:03.691Z,57.61
2018-03-20T12:56:31.127Z,59.16
2018-03-20T12:58:58.529Z,57.80
2018-03-20T13:01:26.002Z,59.81
2018-03-20T13:03:53.359Z,60.47
2018-03-20T13:06:20.798Z,60.39
2018-03-20T13:08:48.218Z,62.80
2018-03-20T13:11:15.627Z,60.62
2018-03-20T13:13:43.039Z,60.88
2018-03-20T13:16:10.738Z,62.17
2018-03-20T13:18:38.158Z,63.85
2018-03-20T13:21:05.585Z,63.22
2018-03-20T13:23:32.991Z,63.76
2018-03-20T13:26:00.412Z,64.91
2018-03-20T13:28:27.823Z,64.39
2018-03-20T13:30:55.244Z,64.26
2018-03-20T13:33:22.660Z,63.30
2018-03-20T13:35:50.071Z,64.16
2018-03-20T13:38:18.086Z,63.93
2018-03-20T13:40:45.492Z,64.53
2018-03-20T13:43:12.914Z,64.05
2018-03-20T13:45:40.328Z,63.30
2018-03-20T13:48:07.737Z,64.35
2018-03-20T13:50:35.154Z,65.58
2018-03-20T13:53:02.587Z,66.85
2018-03-20T13:55:30.004Z,68.08
2018-03-20T13:57:57.426Z,68.72
2018-03-20T14:00:24.851Z,70.29
2018-03-20T14:02:52.273Z,71.06
2018-03-20T14:05:19.683Z,71.43
2018-03-20T14:07:47.100Z,71.99
2018-03-20T14:10:14.514Z,72.68
2018-03-20T14:12:41.921Z,74.92
2018-03-20T14:15:09.326Z,74.09
2018-03-20T14:17:36.755Z,74.12
2018-03-20T14:20:04.157Z,73.93
2018-03-20T14:22:31.582Z,73.04
2018-03-20T14:24:59.000Z,74.10
2018-03-20T14:27:26.441Z,74.60
2018-03-20T14:29:53.842Z,74.63
2018-03-20T14:32:21.263Z,73.76
2018-03-20T14:34:49.442Z,75.11
2018-03-20T14:37:16.863Z,74.65
2018-03-20T14:39:44.279Z,74.52
2018-03-20T14:42:11.703Z,75.38
2018-03-20T14:44:39.111Z,75.70
2018-03-20T14:47:06.523Z,75.72
2018-03-20T14:49:33.930Z,75.91
2018-03-20T14:52:01.414Z,75.44
2018-03-20T14:54:28.831Z,75.31
2018-03-20T14:56:56.250Z,77.15
2018-03-20T14:59:23.658Z,78.15
2018-03-20T15:01:51.142Z,78.94
2018-03-20T15:04:18.502Z,78.80
2018-03-20T15:06:45.919Z,77.40
2018-03-20T15:09:13.334Z,77.98
2018-03-20T15:11:40.740Z,78.14
2018-03-20T15:14:08.171Z,77.68
2018-03-20T15:16:35.578Z,78.68
2018-03-20T15:19:02.999Z,78.99
2018-03-20T15:21:30.403Z,78.13
2018-03-20T15:23:57.824Z,78.99
2018-03-20T15:26:25.230Z,78.86
2018-03-20T15:28:52.664Z,77.82
2018-03-20T15:31:21.042Z,78.70
2018-03-20T15:33:48.453Z,79.42
2018-03-20T15:36:15.862Z,77.86
2018-03-20T15:38:43.282Z,78.63
2018-03-20T15:41:10.708Z,78.10
2018-03-20T15:43:38.121Z,77.94
2018-03-20T15:46:05.528Z,78.38
2018-03-20T15:48:32.949Z,78.29
2018-03-20T15:51:00.365Z,78.07
2018-03-20T15:53:27.786Z,77.27
2018-03-20T15:55:55.219Z,76.39
2018-03-20T15:58:22.648Z,77.22
2018-03-20T16:00:50.051Z,77.32
2018-03-20T16:03:17.466Z,78.19
2018-03-20T16:05:44.893Z,78.53
2018-03-20T16:08:12.305Z,79.55
2018-03-20T16:10:39.773Z,78.31
2018-03-20T16:13:07.207Z,79.04
2018-03-20T16:15:34.621Z,78.58
2018-03-20T16:18:02.038Z,79.95
2018-03-20T16:20:29.454Z,79.33
2018-03-20T16:22:56.919Z,79.40
2018-03-20T16:25:24.291Z,79.46
2018-03-20T16:27:51.707Z,79.22
2018-03-20T16:30:19.118Z,78.96
2018-03-20T16:32:46.537Z,78.68
2018-03-20T16:35:13.947Z,79.16
2018-03-20T16:37:41.367Z,79.54
2018-03-20T16:40:08.791Z,78.61
2018-03-20T16:42:36.198Z,79.55
2018-03-20T16:45:03.614Z,80.35
2018-03-20T16:47:31.036Z,81.18
2018-03-20T16:49:58.451Z,81.62
2018-03-20T16:52:25.870Z,81.57
2018-03-20T16:54:53.586Z,81.75
2018-03-20T16:57:21.024Z,81.05
2018-03-20T16:59:48.492Z,82.16
2018-03-20T17:02:15.866Z,82.58
2018-03-20T17:04:43.278Z,82.47
2018-03-20T17:07:10.694Z,82.38
2018-03-20T17:09:39.254Z,82.74
2018-03-20T17:12:06.663Z,82.85
2018-03-20T17:14:34.183Z,82.05
2018-03-20T17:17:01.598Z,82.47
2018-03-20T17:19:29.037Z,82.57
2018-03-20T17:21:56.446Z,83.06
2018-03-20T17:24:24.618Z,83.53
2018-03-20T17:26:52.034Z,83.72
2018-03-20T17:29:19.454Z,83.79
2018-03-20T17:31:46.871Z,84.24
2018-03-20T17:34:14.296Z,84.34
2018-03-20T17:36:41.702Z,84.10
2018-03-20T17:39:09.120Z,83.46
2018-03-20T17:41:36.534Z,83.43
2018-03-20T17:44:03.965Z,84.26
2018-03-20T17:46:31.372Z,84.79
2018-03-20T17:48:58.788Z,84.98
2018-03-20T17:51:26.208Z,84.71
2018-03-20T17:53:53.624Z,84.98
2018-03-20T17:56:21.032Z,85.44
2018-03-20T17:58:48.544Z,85.92
2018-03-20T18:01:15.953Z,86.06
2018-03-20T18:03:43.365Z,86.71
2018-03-20T18:06:10.773Z,87.08
2018-03-20T18:08:38.201Z,87.76
2018-03-20T18:11:05.615Z,87.71
2018-03-20T18:13:33.042Z,88.03
2018-03-20T18:16:00.465Z,88.43
2018-03-20T18:18:27.873Z,88.34
2018-03-20T18:20:55.303Z,88.33
2018-03-20T18:23:22.710Z,88.33
2018-03-20T18:25:50.147Z,88.07
2018-03-20T18:28:17.564Z,88.23
2018-03-20T18:30:44.982Z,88.14
2018-03-20T18:33:12.392Z,88.14
2018-03-20T18:35:39.806Z,87.79
2018-03-20T18:38:07.210Z,87.97
2018-03-20T18:40:34.646Z,87.83
2018-03-20T18:43:02.077Z,87.24
2018-03-20T18:45:29.490Z,86.98
2018-03-20T18:47:57.470Z,87.37
2018-03-20T18:50:24.886Z,86.92
2018-03-20T18:52:52.302Z,86.77
2018-03-20T18:55:19.730Z,86.78
2018-03-20T18:57:47.141Z,86.75
2018-03-20T19:00:14.600Z,87.40
2018-03-20T19:02:41.987Z,87.57
2018-03-20T19:05:09.415Z,87.17
2018-03-20T19:07:36.826Z,87.08
2018-03-20T19:10:04.394Z,86.45
2018-03-20T19:12:31.857Z,86.56
2018-03-20T19:14:59.271Z,85.90
2018-03-20T19:17:26.681Z,86.14
2018-03-20T19:19:54.098Z,86.66
2018-03-20T19:22:21.518Z,87.32
2018-03-20T19:24:48.930Z,86.93
2018-03-20T19:27:16.345Z,86.93
2018-03-20T19:29:43.761Z,87.01
2018-03-20T19:32:11.176Z,87.21
2018-03-20T19:34:38.613Z,87.18
2018-03-20T19:37:06.039Z,86.70
2018-03-20T19:39:33.450Z,86.56
2018-03-20T19:42:00.982Z,87.04
2018-03-20T19:44:28.534Z,87.35
2018-03-20T19:46:56.392Z,86.58
2018-03-20T19:49:23.911Z,86.41
2018-03-20T19:51:51.347Z,87.15
2018-03-20T19:54:19.712Z,86.87
2018-03-20T19:56:47.139Z,86.55
2018-03-20T19:59:14.562Z,86.05
2018-03-20T20:01:41.973Z,84.84
2018-03-20T20:04:09.391Z,84.51
2018-03-20T20:06:36.812Z,85.76
2018-03-20T20:09:04.225Z,85.36
2018-03-20T20:11:31.637Z,85.68
2018-03-20T20:13:59.053Z,84.78
2018-03-20T20:16:26.468Z,84.87
2018-03-20T20:18:53.877Z,85.14
2018-03-20T20:21:21.315Z,85.10
2018-03-20T20:23:48.719Z,84.67
2018-03-20T20:26:16.146Z,85.44
2018-03-20T20:28:43.569Z,84.80
2018-03-20T20:31:10.986Z,84.69
2018-03-20T20:33:38.410Z,84.04
2018-03-20T20:36:05.831Z,84.48
2018-03-20T20:38:33.262Z,83.37
2018-03-20T20:41:01.571Z,83.28
2018-03-20T20:43:29.068Z,82.45
2018-03-20T20:45:56.492Z,82.99
2018-03-20T20:48:23.906Z,82.12
2018-03-20T20:50:51.332Z,81.50
2018-03-20T20:53:18.748Z,81.62
2018-03-20T20:55:46.154Z,80.49
2018-03-20T20:58:13.566Z,80.40
2018-03-20T21:00:40.988Z,80.00
2018-03-20T21:03:08.400Z,80.24
2018-03-20T21:05:35.846Z,79.31
2018-03-20T21:08:03.393Z,79.79
2018-03-20T21:10:30.989Z,79.48
2018-03-20T21:12:58.614Z,79.31
2018-03-20T21:15:26.085Z,79.82
2018-03-20T21:17:53.646Z,79.37
2018-03-20T21:20:21.340Z,78.52
2018-03-20T21:22:48.853Z,78.61
2018-03-20T21:25:16.425Z,78.28
2018-03-20T21:27:43.933Z,77.53
2018-03-20T21:30:11.523Z,77.39
2018-03-20T21:32:39.049Z,77.69
2018-03-20T21:35:06.534Z,78.35
2018-03-20T21:37:34.005Z,77.90
2018-03-20T21:40:01.544Z,77.17
2018-03-20T21:42:32.194Z,77.04
2018-03-20T21:45:01.542Z,76.97
2018-03-20T21:47:31.610Z,77.37
2018-03-20T21:49:59.243Z,77.01
2018-03-20T21:52:28.367Z,77.40
2018-03-20T21:54:57.183Z,76.63
2018-03-20T21:57:26.570Z,76.84
2018-03-20T22:02:43.615Z,76.87
2018-03-20T22:05:13.638Z,76.74
2018-03-20T22:07:43.382Z,76.36
2018-03-20T22:10:12.928Z,76.67
2018-03-20T22:12:42.311Z,76.03
2018-03-20T22:15:12.250Z,75.45
2018-03-20T22:17:41.796Z,75.89
2018-03-20T22:20:11.628Z,75.14
2018-03-20T22:22:40.591Z,74.96
2018-03-20T22:25:09.834Z,75.52
2018-03-20T22:27:39.613Z,75.42
2018-03-20T22:30:08.819Z,75.51
2018-03-20T22:32:38.734Z,75.31
2018-03-20T22:35:08.711Z,75.27
2018-03-20T22:37:38.231Z,74.99
2018-03-20T22:40:08.331Z,75.16
2018-03-20T22:42:38.891Z,75.31
2018-03-20T22:45:09.791Z,75.70
2018-03-20T22:47:39.133Z,76.05
2018-03-20T22:50:09.568Z,77.58
2018-03-20T22:52:39.430Z,77.92
2018-03-20T22:55:09.388Z,78.80
2018-03-20T22:57:41.138Z,79.30
2018-03-20T23:00:11.039Z,76.29
2018-03-20T23:02:41.039Z,76.45
2018-03-20T23:05:10.449Z,76.79
2018-03-20T23:07:40.087Z,77.23
2018-03-20T23:10:10.068Z,77.10
2018-03-20T23:12:40.268Z,77.19
2018-03-20T23:15:10.048Z,77.24
2018-03-20T23:17:40.138Z,76.60
2018-03-20T23:20:10.476Z,76.98
2018-03-20T23:22:40.381Z,76.90
2018-03-20T23:25:10.638Z,77.42
2018-03-20T23:27:39.811Z,78.06
2018-03-20T23:30:08.629Z,77.98
2018-03-20T23:32:38.577Z,77.18
2018-03-20T23:35:08.343Z,76.47
2018-03-20T23:37:38.125Z,76.63
2018-03-20T23:40:06.832Z,78.24
2018-03-20T23:42:36.936Z,78.04
2018-03-20T23:45:07.019Z,77.69
2018-03-20T23:47:36.284Z,77.69
2018-03-20T23:50:05.893Z,77.57
2018-03-20T23:52:35.652Z,78.22
2018-03-20T23:55:05.909Z,78.18
2018-03-20T23:57:35.963Z,77.72
